Time;durP1;ratioP1;P1;durP2;ratioP2;P2;SDS_P1;SDS_P2;PMS_P1;PMS_P2;Temp;Humidity;BMP_temperature;BMP_pressure;BME280_temperature;BME280_humidity;BME280_pressure;Samples;Min_cycle;Max_cycle;Signal;HPM_P1;HPM_P2
2021/03/16 00:01:25;;;;;;;21.23;4.17;;;6.80;99.90;;;;;;5102328;28;20448;-68
2021/03/16 00:03:52;;;;;;;15.10;2.73;;;6.80;99.90;;;;;;5108202;28;20545;-67
2021/03/16 00:06:19;;;;;;;20.37;4.00;;;6.70;99.90;;;;;;5110329;28;20449;-67
2021/03/16 00:08:45;;;;;;;27.33;3.47;;;6.70;99.90;;;;;;5106391;28;20540;-66
2021/03/16 00:11:11;;;;;;;23.43;3.00;;;6.70;99.90;;;;;;5107009;28;20460;-67
2021/03/16 00:13:38;;;;;;;17.23;2.80;;;6.60;99.90;;;;;;5110045;28;20455;-66
2021/03/16 00:16:05;;;;;;;15.50;3.07;;;6.50;99.90;;;;;;5113143;28;20460;-67
2021/03/16 00:18:32;;;;;;;12.90;3.17;;;6.40;99.90;;;;;;5098401;28;20525;-66
2021/03/16 00:20:59;;;;;;;16.63;2.40;;;6.20;99.90;;;;;;5093404;28;20457;-67
2021/03/16 00:23:25;;;;;;;13.43;3.10;;;6.10;99.90;;;;;;5103667;28;20887;-67
2021/03/16 00:25:52;;;;;;;18.10;2.63;;;6.00;99.90;;;;;;5112002;28;20446;-68
2021/03/16 00:28:18;;;;;;;23.10;2.97;;;5.90;99.90;;;;;;5096711;28;20992;-66
2021/03/16 00:30:44;;;;;;;19.83;2.73;;;5.80;99.90;;;;;;5092886;28;20816;-67
2021/03/16 00:33:11;;;;;;;21.00;4.63;;;5.80;99.90;;;;;;5095690;28;20476;-67
2021/03/16 00:35:38;;;;;;;16.73;3.03;;;5.90;99.90;;;;;;5113046;28;20526;-67
2021/03/16 00:38:05;;;;;;;14.83;4.00;;;5.90;99.90;;;;;;5111047;28;20488;-67
2021/03/16 00:40:32;;;;;;;13.73;2.87;;;6.00;99.90;;;;;;5110899;28;20880;-67
2021/03/16 00:42:58;;;;;;;17.37;2.87;;;6.00;99.90;;;;;;5102575;28;20480;-66
2021/03/16 00:45:26;;;;;;;16.80;2.80;;;6.00;99.90;;;;;;5112286;28;20785;-65
2021/03/16 00:47:52;;;;;;;20.23;3.10;;;6.10;99.90;;;;;;5099480;28;20767;-66
2021/03/16 00:50:18;;;;;;;14.27;3.20;;;6.10;99.90;;;;;;5105700;28;20488;-68
2021/03/16 00:52:46;;;;;;;13.57;3.17;;;6.10;99.90;;;;;;5106501;28;20548;-67
2021/03/16 00:55:13;;;;;;;18.70;3.17;;;6.10;99.90;;;;;;5105445;28;21026;-66
2021/03/16 00:57:39;;;;;;;22.23;3.20;;;6.20;99.90;;;;;;5107568;28;20532;-66
2021/03/16 01:00:07;;;;;;;14.63;2.70;;;6.30;99.90;;;;;;5094138;28;20484;-68
2021/03/16 01:02:34;;;;;;;19.93;3.30;;;6.30;99.90;;;;;;5107690;28;20521;-66
2021/03/16 01:05:00;;;;;;;23.90;3.73;;;6.30;99.90;;;;;;5100636;28;20483;-67
2021/03/16 01:07:27;;;;;;;17.03;2.63;;;6.30;99.90;;;;;;5103856;28;20470;-67
2021/03/16 01:09:54;;;;;;;11.07;2.13;;;6.30;99.90;;;;;;5092056;28;20871;-66
2021/03/16 01:12:20;;;;;;;17.90;2.93;;;6.30;99.90;;;;;;5095610;28;20545;-66
2021/03/16 01:14:47;;;;;;;14.77;2.10;;;6.40;99.90;;;;;;5103441;28;20453;-67
2021/03/16 01:17:13;;;;;;;15.27;3.20;;;6.40;99.90;;;;;;5095743;28;21117;-67
2021/03/16 01:19:40;;;;;;;17.73;2.60;;;6.40;99.90;;;;;;5092985;28;20615;-68
2021/03/16 01:22:06;;;;;;;15.07;2.63;;;6.50;99.90;;;;;;5100097;28;20539;-66
2021/03/16 01:24:32;;;;;;;17.73;2.63;;;6.50;99.90;;;;;;5093932;28;20446;-66
2021/03/16 01:27:00;;;;;;;15.30;2.90;;;6.50;99.90;;;;;;5097627;28;20449;-67
2021/03/16 01:29:26;;;;;;;15.27;2.97;;;6.50;99.90;;;;;;5112315;28;20453;-67
2021/03/16 01:31:52;;;;;;;16.63;3.63;;;6.60;99.90;;;;;;5111751;28;20524;-67
2021/03/16 01:34:19;;;;;;;13.27;2.77;;;6.50;99.90;;;;;;5111922;28;20488;-67
2021/03/16 01:36:45;;;;;;;13.10;2.27;;;6.50;99.90;;;;;;5098750;28;21167;-67
2021/03/16 01:39:11;;;;;;;17.73;2.50;;;6.60;99.90;;;;;;5100885;27;21050;-66
2021/03/16 01:41:38;;;;;;;13.20;2.47;;;6.60;99.90;;;;;;5105775;28;20554;-65
2021/03/16 01:44:05;;;;;;;15.20;3.10;;;6.70;99.90;;;;;;5099831;28;20492;-67
2021/03/16 01:46:32;;;;;;;18.50;2.53;;;6.70;99.90;;;;;;5109815;28;20550;-68
2021/03/16 01:48:58;;;;;;;18.27;3.17;;;6.80;99.90;;;;;;5101406;28;20524;-66
2021/03/16 01:51:25;;;;;;;21.47;3.03;;;6.70;99.90;;;;;;5107853;28;20461;-67
2021/03/16 01:53:51;;;;;;;21.80;3.20;;;6.70;99.90;;;;;;5110874;28;20806;-67
2021/03/16 01:56:19;;;;;;;18.17;2.70;;;6.70;99.90;;;;;;5113840;28;20927;-66
2021/03/16 01:58:47;;;;;;;12.80;2.50;;;6.70;99.90;;;;;;5107108;28;20445;-67
2021/03/16 02:01:14;;;;;;;19.50;2.80;;;6.80;99.90;;;;;;5106609;28;20506;-66
2021/03/16 02:03:41;;;;;;;15.00;2.47;;;6.70;99.90;;;;;;5108392;28;20528;-66
2021/03/16 02:06:13;;;;;;;14.73;2.30;;;6.60;99.90;;;;;;5104823;28;20460;-66
2021/03/16 02:08:47;;;;;;;16.80;4.10;;;6.70;99.90;;;;;;5107731;28;20468;-66
2021/03/16 02:11:23;;;;;;;17.73;3.07;;;6.70;99.90;;;;;;5111584;28;20459;-66
2021/03/16 02:13:54;;;;;;;14.67;2.90;;;6.70;99.90;;;;;;5106749;28;20529;-67
2021/03/16 02:16:30;;;;;;;20.03;3.40;;;6.70;99.90;;;;;;5111042;28;20465;-66
2021/03/16 02:19:01;;;;;;;17.43;2.63;;;6.70;99.90;;;;;;5102902;28;20528;-65
2021/03/16 02:21:30;;;;;;;15.70;2.63;;;6.70;99.90;;;;;;5104676;28;20480;-68
2021/03/16 02:24:41;;;;;;;14.67;2.77;;;6.70;99.90;;;;;;5097990;28;20478;-66
2021/03/16 02:27:16;;;;;;;11.63;2.37;;;6.60;99.90;;;;;;5107998;28;21003;-66
2021/03/16 02:29:45;;;;;;;14.10;2.67;;;6.70;99.90;;;;;;5107949;28;20528;-67
2021/03/16 02:32:16;;;;;;;18.50;2.20;;;6.70;99.90;;;;;;5108943;28;20542;-67
2021/03/16 02:34:47;;;;;;;14.97;2.70;;;6.70;99.90;;;;;;5111502;28;20495;-67
2021/03/16 02:37:16;;;;;;;16.20;2.27;;;6.70;99.90;;;;;;5111206;28;20449;-66
2021/03/16 02:39:43;;;;;;;13.23;2.37;;;6.60;99.90;;;;;;5107387;28;20898;-67
2021/03/16 02:42:12;;;;;;;21.23;3.43;;;6.50;99.90;;;;;;5103145;27;20455;-66
2021/03/16 02:44:39;;;;;;;17.77;3.43;;;6.50;99.90;;;;;;5125084;27;20949;-67
2021/03/16 02:47:08;;;;;;;17.67;2.43;;;6.50;99.90;;;;;;5127241;27;20475;-67
2021/03/16 02:49:38;;;;;;;13.77;2.07;;;6.60;99.90;;;;;;5116625;27;20451;-67
2021/03/16 02:52:06;;;;;;;16.93;2.13;;;6.50;99.90;;;;;;5115025;28;20457;-67
2021/03/16 02:54:33;;;;;;;15.40;3.03;;;6.70;99.90;;;;;;5094675;28;20491;-66
2021/03/16 02:57:00;;;;;;;17.30;2.10;;;6.60;99.90;;;;;;5111320;28;20468;-67
2021/03/16 02:59:28;;;;;;;10.33;3.07;;;6.60;99.90;;;;;;5115108;28;20533;-68
2021/03/16 03:01:56;;;;;;;15.67;2.50;;;6.70;99.90;;;;;;5115190;28;20950;-67
2021/03/16 03:04:25;;;;;;;11.63;2.30;;;6.60;99.90;;;;;;5107354;28;20456;-66
2021/03/16 03:06:52;;;;;;;13.30;2.37;;;6.60;99.90;;;;;;5097143;28;20889;-66
2021/03/16 03:09:18;;;;;;;20.37;2.73;;;6.60;99.90;;;;;;5095188;28;20454;-67
2021/03/16 03:11:44;;;;;;;18.10;2.60;;;6.80;99.90;;;;;;5096512;28;20450;-66
2021/03/16 03:14:12;;;;;;;27.23;3.03;;;6.80;99.90;;;;;;5100441;28;20480;-66
2021/03/16 03:16:38;;;;;;;13.57;2.10;;;6.70;99.90;;;;;;5115109;28;20453;-66
2021/03/16 03:19:05;;;;;;;20.77;2.47;;;6.70;99.90;;;;;;5110932;28;20454;-66
2021/03/16 03:21:38;;;;;;;15.40;3.10;;;6.80;99.90;;;;;;5095077;28;20484;-67
2021/03/16 03:24:06;;;;;;;16.97;3.23;;;6.80;99.90;;;;;;5097790;28;20463;-66
2021/03/16 03:26:42;;;;;;;15.23;2.80;;;6.80;99.90;;;;;;5115132;28;20446;-67
2021/03/16 03:29:10;;;;;;;16.83;2.60;;;6.80;99.90;;;;;;5113901;28;20445;-65
2021/03/16 03:31:39;;;;;;;15.00;2.00;;;6.60;99.90;;;;;;5115197;28;20459;-66
2021/03/16 03:34:06;;;;;;;15.83;3.10;;;6.60;99.90;;;;;;5104701;28;20442;-66
2021/03/16 03:36:35;;;;;;;20.23;3.30;;;6.70;99.90;;;;;;5093942;28;20452;-67
2021/03/16 03:39:03;;;;;;;16.33;2.50;;;6.70;99.90;;;;;;5103285;28;20788;-65
2021/03/16 03:41:30;;;;;;;16.83;3.53;;;6.70;99.90;;;;;;5114932;28;20997;-67
2021/03/16 03:43:56;;;;;;;20.50;2.53;;;6.70;99.90;;;;;;5107775;28;20445;-66
2021/03/16 03:46:23;;;;;;;18.23;2.97;;;6.70;99.90;;;;;;5113644;28;20473;-66
2021/03/16 03:48:50;;;;;;;20.63;4.17;;;6.80;99.90;;;;;;5114589;28;20441;-68
2021/03/16 03:51:19;;;;;;;19.83;3.10;;;6.70;99.90;;;;;;5114520;28;20449;-68
2021/03/16 03:53:48;;;;;;;15.10;2.77;;;6.80;99.90;;;;;;5100417;28;20582;-66
2021/03/16 03:56:15;;;;;;;13.13;2.73;;;6.80;99.90;;;;;;5094182;28;20457;-66
2021/03/16 03:58:43;;;;;;;21.20;2.90;;;6.80;99.90;;;;;;5106173;28;20453;-66
2021/03/16 04:01:10;;;;;;;13.23;2.73;;;6.80;99.90;;;;;;5114132;28;20550;-67
2021/03/16 04:03:37;;;;;;;16.90;2.63;;;6.70;99.90;;;;;;5113423;28;20445;-66
2021/03/16 04:06:05;;;;;;;15.47;2.50;;;6.70;99.90;;;;;;5114331;28;20791;-66
2021/03/16 04:08:32;;;;;;;14.93;2.40;;;6.60;99.90;;;;;;5113618;28;20470;-67
2021/03/16 04:11:01;;;;;;;15.37;2.40;;;6.60;99.90;;;;;;5114149;28;20452;-67
2021/03/16 04:13:28;;;;;;;16.80;3.40;;;6.60;99.90;;;;;;5098291;28;20457;-67
2021/03/16 04:15:55;;;;;;;16.57;3.00;;;6.60;99.90;;;;;;5093543;28;20541;-67
2021/03/16 04:18:22;;;;;;;13.20;2.77;;;6.50;99.90;;;;;;5107230;28;20449;-66
2021/03/16 04:20:49;;;;;;;17.60;3.20;;;6.50;99.90;;;;;;5113368;28;20574;-67
2021/03/16 04:23:15;;;;;;;13.43;2.37;;;6.60;99.90;;;;;;5100834;28;20546;-67
2021/03/16 04:25:42;;;;;;;16.07;2.90;;;6.60;99.90;;;;;;5093679;28;20446;-67
2021/03/16 04:28:09;;;;;;;20.20;2.83;;;6.70;99.90;;;;;;5103978;28;20447;-66
2021/03/16 04:30:35;;;;;;;14.73;1.87;;;6.70;99.90;;;;;;5100081;28;20492;-66
2021/03/16 04:33:02;;;;;;;9.53;1.97;;;6.70;99.90;;;;;;5094504;28;20939;-67
2021/03/16 04:35:28;;;;;;;14.43;3.47;;;6.70;99.90;;;;;;5116070;27;20453;-66
2021/03/16 04:37:54;;;;;;;11.83;2.40;;;6.80;99.90;;;;;;5107490;27;20573;-66
2021/03/16 04:40:21;;;;;;;14.63;2.90;;;6.80;99.90;;;;;;5096744;28;20565;-65
2021/03/16 04:42:47;;;;;;;28.23;12.27;;;6.70;99.90;;;;;;5113759;28;20443;-66
2021/03/16 04:45:16;;;;;;;27.90;8.17;;;6.70;99.90;;;;;;5099612;28;20536;-66
2021/03/16 04:47:43;;;;;;;18.40;5.60;;;6.70;99.90;;;;;;5103516;28;20456;-66
2021/03/16 04:50:10;;;;;;;12.73;2.30;;;6.70;99.90;;;;;;5105241;28;20448;-66
2021/03/16 04:52:36;;;;;;;13.70;3.30;;;6.60;99.90;;;;;;5111033;28;20512;-67
2021/03/16 04:55:03;;;;;;;15.67;3.40;;;6.60;99.90;;;;;;5110318;28;20449;-66
2021/03/16 04:57:29;;;;;;;12.93;2.80;;;6.60;99.90;;;;;;5112851;28;20494;-66
2021/03/16 04:59:56;;;;;;;14.23;2.63;;;6.60;99.90;;;;;;5106831;28;20990;-67
2021/03/16 05:02:23;;;;;;;11.37;2.00;;;6.50;99.90;;;;;;5093239;28;20489;-65
2021/03/16 05:04:49;;;;;;;10.40;1.70;;;6.60;99.90;;;;;;5110375;28;20985;-66
2021/03/16 05:07:16;;;;;;;10.30;1.87;;;6.60;99.90;;;;;;5113301;28;20989;-66
2021/03/16 05:09:43;;;;;;;12.03;1.97;;;6.60;99.90;;;;;;5088997;28;21019;-67
2021/03/16 05:12:10;;;;;;;15.20;2.00;;;6.70;99.90;;;;;;5112025;28;20550;-67
2021/03/16 05:14:36;;;;;;;11.93;2.37;;;6.70;99.90;;;;;;5111709;27;20526;-66
2021/03/16 05:17:03;;;;;;;13.67;2.33;;;6.70;99.90;;;;;;5092614;28;20560;-65
2021/03/16 05:19:30;;;;;;;10.57;1.70;;;6.70;99.90;;;;;;5093072;28;20485;-65
2021/03/16 05:21:56;;;;;;;15.60;2.40;;;6.70;99.90;;;;;;5092514;28;20482;-66
2021/03/16 05:24:23;;;;;;;11.70;2.73;;;6.70;99.90;;;;;;5103263;28;20456;-67
2021/03/16 05:26:49;;;;;;;14.47;2.47;;;6.60;99.90;;;;;;5112334;28;20451;-66
2021/03/16 05:29:15;;;;;;;14.40;1.93;;;6.50;99.90;;;;;;5112236;28;20467;-67
2021/03/16 05:31:42;;;;;;;16.10;2.63;;;6.50;99.90;;;;;;5112922;28;20444;-66
2021/03/16 05:34:08;;;;;;;13.13;3.30;;;6.50;99.90;;;;;;5096825;28;20549;-67
2021/03/16 05:36:35;;;;;;;17.03;2.73;;;6.50;99.90;;;;;;5092096;28;20444;-66
2021/03/16 05:39:02;;;;;;;15.17;2.30;;;6.60;99.90;;;;;;5103381;28;20452;-66
2021/03/16 05:41:29;;;;;;;14.93;2.70;;;6.60;99.90;;;;;;5112186;28;20915;-68
2021/03/16 05:43:56;;;;;;;7.70;1.53;;;6.60;99.90;;;;;;5111791;28;20477;-55
2021/03/16 05:46:23;;;;;;;10.57;2.10;;;7.40;99.90;;;;;;5112351;28;20430;-67
2021/03/16 05:48:52;;;;;;;13.53;2.63;;;9.00;99.90;;;;;;5112379;28;20206;-70
2021/03/16 05:51:19;;;;;;;13.77;2.10;;;8.40;99.90;;;;;;5098797;28;20536;-68
2021/03/16 05:53:52;;;;;;;12.73;2.70;;;8.10;99.90;;;;;;5112418;28;20598;-69
2021/03/16 05:56:19;;;;;;;23.67;3.83;;;7.80;99.90;;;;;;5111889;28;20525;-67
2021/03/16 05:58:47;;;;;;;13.63;2.70;;;7.70;99.90;;;;;;5112401;28;20874;-67
2021/03/16 06:01:14;;;;;;;11.60;2.23;;;7.50;99.90;;;;;;5113339;28;20687;-68
2021/03/16 06:03:41;;;;;;;10.37;2.00;;;7.30;99.90;;;;;;5092741;28;20533;-68
2021/03/16 06:06:09;;;;;;;13.70;2.10;;;7.20;99.90;;;;;;5092321;28;20999;-69
2021/03/16 06:08:35;;;;;;;18.07;2.20;;;7.00;99.90;;;;;;5116087;28;20456;-68
2021/03/16 06:11:04;;;;;;;16.33;2.47;;;7.00;99.90;;;;;;5108448;28;21047;-69
2021/03/16 06:13:30;;;;;;;11.70;2.27;;;7.00;99.90;;;;;;5096331;28;20533;-67
2021/03/16 06:15:59;;;;;;;11.63;2.30;;;6.90;99.90;;;;;;5113078;28;20449;-68
2021/03/16 06:18:28;;;;;;;12.30;2.43;;;7.00;99.90;;;;;;5116703;28;20436;-70
2021/03/16 06:20:58;;;;;;;17.20;2.77;;;6.90;99.90;;;;;;5116231;28;20990;-70
2021/03/16 06:23:31;;;;;;;12.30;2.93;;;6.90;99.90;;;;;;5116830;28;20449;-67
2021/03/16 06:25:57;;;;;;;13.10;2.90;;;6.80;99.90;;;;;;5116289;28;20551;-67
2021/03/16 06:28:30;;;;;;;14.00;3.40;;;6.80;99.90;;;;;;5117475;28;20449;-68
2021/03/16 06:30:57;;;;;;;11.80;2.50;;;6.70;99.90;;;;;;5112953;27;20487;-67
2021/03/16 06:33:25;;;;;;;17.00;2.97;;;6.80;99.90;;;;;;5113181;28;20532;-67
2021/03/16 06:35:59;;;;;;;18.20;2.67;;;6.80;99.90;;;;;;5112473;28;20453;-69
2021/03/16 06:38:26;;;;;;;13.03;2.80;;;6.80;99.90;;;;;;5110240;28;20457;-71
2021/03/16 06:40:53;;;;;;;13.63;2.73;;;6.80;99.90;;;;;;5113950;28;21138;-69
2021/03/16 06:43:24;;;;;;;17.23;3.00;;;6.70;99.90;;;;;;5107804;28;20536;-66
2021/03/16 06:45:52;;;;;;;19.90;3.20;;;6.80;99.90;;;;;;5111290;28;20448;-68
2021/03/16 06:48:20;;;;;;;16.93;2.97;;;6.80;99.90;;;;;;5107810;28;20438;-60
2021/03/16 06:50:47;;;;;;;19.10;3.87;;;6.70;99.90;;;;;;5109367;27;20568;-61
2021/03/16 06:53:14;;;;;;;29.03;3.20;;;6.80;99.90;;;;;;5111202;27;20604;-60
2021/03/16 06:55:51;;;;;;;10.50;2.33;;;6.70;99.90;;;;;;5111761;27;21007;-61
2021/03/16 06:58:21;;;;;;;12.40;1.90;;;6.60;99.90;;;;;;5112050;27;20455;-60
2021/03/16 07:00:48;;;;;;;14.03;2.40;;;6.70;99.90;;;;;;5111183;28;20491;-63
2021/03/16 07:03:16;;;;;;;14.73;2.67;;;6.80;99.90;;;;;;5115278;27;20578;-67
2021/03/16 07:05:44;;;;;;;10.83;2.00;;;6.90;99.90;;;;;;5116697;27;20570;-63
2021/03/16 07:08:13;;;;;;;15.43;2.90;;;6.90;99.90;;;;;;5109610;28;20921;-62
2021/03/16 07:10:41;;;;;;;19.43;2.90;;;7.00;99.90;;;;;;5115242;27;20447;-64
2021/03/16 07:13:10;;;;;;;13.10;2.23;;;7.10;99.90;;;;;;5114432;27;20448;-62
2021/03/16 07:15:39;;;;;;;11.60;2.07;;;7.20;99.90;;;;;;5110491;27;20498;-62
2021/03/16 07:18:10;;;;;;;13.83;2.13;;;7.30;99.90;;;;;;5108646;28;20833;-63
2021/03/16 07:20:37;;;;;;;17.20;2.17;;;7.20;99.90;;;;;;5112115;27;20485;-61
2021/03/16 07:23:08;;;;;;;10.57;1.30;;;7.30;99.90;;;;;;5113754;27;20882;-61
2021/03/16 07:25:34;;;;;;;12.00;1.77;;;7.50;99.90;;;;;;5112969;28;20450;-62
2021/03/16 07:28:04;;;;;;;14.03;2.40;;;7.50;99.90;;;;;;5111901;27;20537;-60
2021/03/16 07:30:30;;;;;;;19.10;2.33;;;7.50;99.90;;;;;;5113688;28;20449;-61
2021/03/16 07:32:59;;;;;;;14.10;2.47;;;7.50;99.90;;;;;;5112775;28;20502;-62
2021/03/16 07:35:27;;;;;;;10.90;2.30;;;7.50;99.90;;;;;;5114094;28;20541;-63
2021/03/16 07:37:55;;;;;;;14.68;2.60;;;7.50;99.90;;;;;;5112157;28;20439;-61
2021/03/16 07:40:22;;;;;;;10.93;1.97;;;7.60;99.90;;;;;;5119890;27;20298;-60
2021/03/16 07:42:50;;;;;;;10.10;2.17;;;7.90;99.90;;;;;;5120242;27;20480;-62
2021/03/16 07:45:24;;;;;;;17.57;2.30;;;8.00;99.90;;;;;;5112271;28;20480;-61
2021/03/16 07:47:51;;;;;;;12.47;3.07;;;8.00;99.90;;;;;;5111114;27;20873;-61
2021/03/16 07:50:27;;;;;;;12.17;2.43;;;8.30;99.90;;;;;;5105917;28;20454;-64
2021/03/16 07:52:54;;;;;;;11.90;2.20;;;8.40;99.90;;;;;;5103338;28;20634;-63
2021/03/16 07:55:27;;;;;;;18.10;3.03;;;8.40;99.90;;;;;;5109586;28;20544;-63
2021/03/16 07:57:54;;;;;;;11.77;2.30;;;8.40;99.90;;;;;;5104593;28;20537;-63
2021/03/16 08:00:31;;;;;;;13.50;2.60;;;8.40;99.90;;;;;;5095375;28;20513;-63
2021/03/16 08:02:58;;;;;;;14.07;2.90;;;8.50;99.90;;;;;;5091576;28;20513;-66
2021/03/16 08:05:25;;;;;;;12.93;2.80;;;8.50;99.90;;;;;;5094286;28;20451;-61
2021/03/16 08:07:52;;;;;;;12.67;2.53;;;8.40;99.90;;;;;;5112767;28;20950;-63
2021/03/16 08:10:29;;;;;;;12.87;2.20;;;8.50;99.90;;;;;;5112590;28;20514;-62
2021/03/16 08:13:00;;;;;;;12.43;2.17;;;8.60;99.90;;;;;;5113391;28;20452;-61
2021/03/16 08:15:26;;;;;;;9.90;1.73;;;8.40;99.90;;;;;;5101810;28;20537;-64
2021/03/16 08:17:58;;;;;;;13.60;2.27;;;8.40;99.90;;;;;;5112872;28;20450;-62
2021/03/16 08:20:26;;;;;;;23.63;5.00;;;8.40;99.90;;;;;;5112705;28;20477;-62
2021/03/16 08:23:04;;;;;;;20.93;5.30;;;8.40;99.90;;;;;;5113006;28;20962;-63
2021/03/16 08:25:32;;;;;;;11.57;3.40;;;8.20;99.90;;;;;;5107364;27;20544;-64
2021/03/16 08:28:00;;;;;;;16.50;3.30;;;8.20;99.90;;;;;;5109353;28;20441;-63
2021/03/16 08:30:28;;;;;;;13.67;3.00;;;8.30;99.90;;;;;;5111710;28;20940;-64
2021/03/16 08:32:54;;;;;;;14.20;3.43;;;8.40;99.90;;;;;;5111006;28;20454;-63
2021/03/16 08:35:20;;;;;;;14.93;3.30;;;8.40;99.90;;;;;;5094481;28;20454;-60
2021/03/16 08:37:51;;;;;;;19.90;3.10;;;8.60;99.90;;;;;;5101922;28;20532;-65
2021/03/16 08:40:23;;;;;;;11.40;2.13;;;8.50;99.90;;;;;;5106084;28;20522;-61
2021/03/16 08:42:49;;;;;;;14.20;2.13;;;8.50;99.90;;;;;;5110265;28;20532;-62
2021/03/16 08:45:26;;;;;;;12.33;1.70;;;8.50;99.90;;;;;;5103982;28;20516;-62
2021/03/16 08:47:52;;;;;;;10.50;2.10;;;8.80;99.90;;;;;;5108571;28;21009;-62
2021/03/16 08:50:24;;;;;;;13.67;2.00;;;9.00;99.90;;;;;;5108150;28;20536;-63
2021/03/16 08:52:50;;;;;;;13.47;1.90;;;9.40;99.90;;;;;;5110031;28;20957;-61
2021/03/16 08:55:24;;;;;;;7.30;1.20;;;10.10;99.90;;;;;;5104596;28;20469;-63
2021/03/16 08:57:52;;;;;;;5.70;1.40;;;11.20;99.90;;;;;;5112589;28;20449;-63
2021/03/16 09:00:23;;;;;;;5.73;1.50;;;13.20;99.90;;;;;;5101597;28;20478;-62
2021/03/16 09:02:50;;;;;;;9.10;1.70;;;14.20;99.90;;;;;;5097857;28;20817;-61
2021/03/16 09:05:24;;;;;;;11.20;2.10;;;14.40;99.90;;;;;;5112063;28;20450;-65
2021/03/16 09:07:54;;;;;;;5.50;1.90;;;15.70;99.90;;;;;;5100470;28;20446;-61
2021/03/16 09:10:22;;;;;;;7.60;2.70;;;16.20;99.90;;;;;;5099197;28;20456;-64
2021/03/16 09:12:49;;;;;;;9.63;1.90;;;15.50;99.90;;;;;;5109399;28;20491;-64
2021/03/16 09:15:18;;;;;;;10.77;2.00;;;14.90;99.90;;;;;;5107516;28;20450;-53
2021/03/16 09:17:47;;;;;;;5.03;1.47;;;14.40;99.90;;;;;;5107792;28;20824;-58
2021/03/16 09:20:16;;;;;;;9.47;1.97;;;13.90;99.90;;;;;;5106510;28;20488;-61
2021/03/16 09:22:45;;;;;;;6.17;1.43;;;15.00;99.90;;;;;;5106602;28;20461;-65
2021/03/16 09:25:13;;;;;;;5.47;1.40;;;14.60;99.90;;;;;;5107317;27;20483;-65
2021/03/16 09:27:40;;;;;;;7.70;1.80;;;15.60;99.90;;;;;;5111415;28;20488;-64
2021/03/16 09:30:09;;;;;;;6.57;1.60;;;16.60;99.90;;;;;;5101961;28;20457;-65
2021/03/16 09:32:37;;;;;;;7.77;1.30;;;16.50;99.90;;;;;;5112801;27;20818;-62
2021/03/16 09:35:04;;;;;;;10.10;2.13;;;15.80;99.90;;;;;;5106023;28;20558;-63
2021/03/16 09:37:41;;;;;;;8.00;1.53;;;14.10;99.90;;;;;;5103748;28;20549;-64
2021/03/16 09:40:09;;;;;;;11.17;2.17;;;13.40;99.90;;;;;;5101549;28;20533;-63
2021/03/16 09:42:39;;;;;;;6.63;1.60;;;13.10;99.90;;;;;;5107644;27;20528;-63
2021/03/16 09:45:16;;;;;;;7.00;1.47;;;12.90;99.90;;;;;;5109759;27;20535;-64
2021/03/16 09:47:43;;;;;;;6.33;1.80;;;12.70;99.90;;;;;;5109898;28;20531;-64
2021/03/16 09:50:13;;;;;;;5.80;1.27;;;12.50;99.90;;;;;;5112755;28;20532;-67
2021/03/16 09:52:39;;;;;;;7.70;1.40;;;12.80;99.90;;;;;;5107295;28;20524;-60
2021/03/16 09:55:07;;;;;;;8.63;1.67;;;12.90;99.90;;;;;;5106821;28;20475;-62
2021/03/16 09:57:37;;;;;;;9.57;1.30;;;12.30;99.90;;;;;;5110003;28;20872;-60
2021/03/16 10:00:06;;;;;;;10.17;1.70;;;12.00;99.90;;;;;;5098515;28;20486;-62
2021/03/16 10:02:35;;;;;;;6.90;1.30;;;11.80;99.90;;;;;;5111489;28;20441;-61
2021/03/16 10:05:07;;;;;;;9.30;1.80;;;12.30;99.90;;;;;;5101856;28;20495;-61
2021/03/16 10:07:35;;;;;;;7.03;1.70;;;13.40;99.90;;;;;;5099886;28;20492;-64
2021/03/16 10:10:14;;;;;;;6.10;1.57;;;15.10;99.90;;;;;;5091574;28;20478;-60
2021/03/16 10:12:49;;;;;;;7.53;2.00;;;16.60;99.90;;;;;;5091294;28;20476;-65
2021/03/16 10:15:22;;;;;;;7.40;1.93;;;17.60;99.90;;;;;;5102380;28;20515;-61
2021/03/16 10:17:49;;;;;;;8.40;2.10;;;18.60;99.90;;;;;;5103742;28;20797;-60
2021/03/16 10:20:21;;;;;;;7.30;1.83;;;18.90;99.90;;;;;;5091380;28;20478;-61
2021/03/16 10:22:53;;;;;;;7.70;2.37;;;18.00;99.90;;;;;;5111419;28;20441;-60
2021/03/16 10:25:20;;;;;;;5.83;1.60;;;17.30;99.90;;;;;;5097264;28;20489;-63
2021/03/16 10:27:55;;;;;;;9.30;1.73;;;18.30;98.40;;;;;;5096062;28;20456;-63
2021/03/16 10:30:29;;;;;;;8.80;1.97;;;19.70;95.60;;;;;;5112034;28;20479;-60
2021/03/16 10:32:56;;;;;;;12.03;2.23;;;18.50;96.70;;;;;;5104837;28;20485;-60
2021/03/16 10:35:23;;;;;;;8.33;2.00;;;19.00;94.40;;;;;;5111264;28;20537;-64
2021/03/16 10:37:50;;;;;;;7.80;2.73;;;18.30;94.00;;;;;;5098211;28;20482;-63
2021/03/16 10:40:17;;;;;;;8.50;2.40;;;17.70;94.90;;;;;;5101863;28;20572;-62
2021/03/16 10:42:44;;;;;;;5.60;2.10;;;16.70;96.80;;;;;;5101209;28;20942;-64
2021/03/16 10:45:11;;;;;;;6.17;1.80;;;15.20;95.90;;;;;;5091633;28;20478;-66
2021/03/16 10:47:37;;;;;;;9.10;1.87;;;16.70;99.20;;;;;;5092940;28;20468;-62
2021/03/16 10:50:06;;;;;;;10.13;1.60;;;16.30;95.20;;;;;;5110235;28;20461;-63
2021/03/16 10:52:33;;;;;;;8.47;1.80;;;15.00;97.30;;;;;;5120339;27;20812;-64
2021/03/16 10:54:59;;;;;;;158.67;77.57;;;14.40;99.50;;;;;;5115230;28;20855;-64
2021/03/16 10:57:25;;;;;;;15.73;5.70;;;13.40;99.90;;;;;;5113959;28;20555;-64
2021/03/16 10:59:52;;;;;;;11.30;2.80;;;11.90;99.90;;;;;;5114302;28;20524;-66
2021/03/16 11:02:18;;;;;;;24.50;12.47;;;10.90;99.90;;;;;;5113894;28;20508;-64
2021/03/16 11:04:48;;;;;;;8.30;2.80;;;10.10;99.90;;;;;;5114647;28;20968;-63
2021/03/16 11:07:15;;;;;;;8.20;2.50;;;9.70;99.90;;;;;;5114065;28;20881;-66
2021/03/16 11:09:41;;;;;;;7.20;2.47;;;9.20;99.90;;;;;;5114570;28;21139;-64
2021/03/16 11:12:08;;;;;;;9.07;2.03;;;9.00;99.90;;;;;;5114314;28;20501;-62
2021/03/16 11:14:35;;;;;;;7.93;1.80;;;9.20;99.90;;;;;;5114322;28;20472;-63
2021/03/16 11:17:01;;;;;;;7.30;1.70;;;9.90;99.90;;;;;;5107649;28;20454;-63
2021/03/16 11:19:28;;;;;;;8.50;1.80;;;12.10;99.90;;;;;;5111374;28;20453;-64
2021/03/16 11:21:54;;;;;;;5.80;2.07;;;14.80;99.90;;;;;;5113513;28;20516;-64
2021/03/16 11:24:21;;;;;;;7.57;1.43;;;17.50;99.90;;;;;;5113723;28;20461;-62
2021/03/16 11:26:48;;;;;;;8.53;1.80;;;19.30;99.90;;;;;;5113829;28;20867;-63
2021/03/16 11:29:14;;;;;;;5.33;1.20;;;18.10;99.90;;;;;;5111812;28;20498;-66
2021/03/16 11:31:40;;;;;;;6.37;1.40;;;17.40;99.90;;;;;;5112550;27;20502;-63
2021/03/16 11:34:07;;;;;;;9.17;1.90;;;15.90;99.90;;;;;;5111993;28;20437;-64
2021/03/16 11:36:34;;;;;;;7.33;1.83;;;15.10;99.90;;;;;;5110246;27;20532;-64
2021/03/16 11:39:00;;;;;;;9.50;2.17;;;15.00;99.90;;;;;;5109598;28;20448;-63
2021/03/16 11:41:27;;;;;;;9.50;2.13;;;14.70;99.90;;;;;;5111723;28;20595;-63
2021/03/16 11:43:54;;;;;;;6.53;1.80;;;13.80;99.90;;;;;;5110789;28;21022;-66
2021/03/16 11:46:20;;;;;;;7.37;1.87;;;13.50;99.90;;;;;;5112395;28;20969;-65
2021/03/16 11:48:46;;;;;;;5.53;1.20;;;13.40;99.90;;;;;;5110575;28;20586;-64
2021/03/16 11:51:13;;;;;;;5.87;1.50;;;13.50;99.90;;;;;;5113297;27;20445;-66
2021/03/16 11:53:40;;;;;;;8.10;1.67;;;14.10;99.90;;;;;;5112567;27;21032;-64
2021/03/16 11:56:07;;;;;;;6.03;1.40;;;14.20;99.90;;;;;;5111352;28;20550;-63
2021/03/16 11:58:34;;;;;;;6.83;1.47;;;14.70;99.90;;;;;;5107927;28;20442;-63
2021/03/16 12:01:01;;;;;;;8.80;1.77;;;15.00;99.90;;;;;;5110685;28;20849;-62
2021/03/16 12:03:28;;;;;;;6.60;1.87;;;14.30;99.90;;;;;;5104103;28;20496;-64
2021/03/16 12:05:55;;;;;;;6.77;1.70;;;13.80;99.90;;;;;;5111286;28;20434;-64
2021/03/16 12:08:22;;;;;;;10.00;2.67;;;13.60;99.90;;;;;;5111419;27;20563;-62
2021/03/16 12:10:49;;;;;;;13.03;2.70;;;13.40;99.90;;;;;;5110441;27;20450;-63
2021/03/16 12:13:16;;;;;;;8.90;2.20;;;13.60;99.90;;;;;;5108427;28;20842;-63
2021/03/16 12:15:44;;;;;;;17.30;2.67;;;13.40;99.90;;;;;;5109145;27;20453;-63
2021/03/16 12:18:11;;;;;;;8.00;1.60;;;13.80;99.90;;;;;;5111720;27;20532;-64
2021/03/16 12:20:38;;;;;;;7.93;2.20;;;13.60;99.90;;;;;;5110931;28;20505;-61
2021/03/16 12:23:04;;;;;;;5.33;1.53;;;13.90;99.90;;;;;;5109400;28;21076;-63
2021/03/16 12:25:31;;;;;;;8.87;2.13;;;13.40;99.90;;;;;;5111619;28;20449;-63
2021/03/16 12:28:00;;;;;;;5.20;1.50;;;13.30;99.90;;;;;;5112550;27;20942;-65
2021/03/16 12:30:28;;;;;;;6.10;1.70;;;13.40;99.90;;;;;;5108917;27;20450;-62
2021/03/16 12:32:55;;;;;;;6.43;1.80;;;13.30;99.90;;;;;;5106596;27;20464;-61
2021/03/16 12:35:23;;;;;;;6.97;2.20;;;13.30;99.90;;;;;;5109489;27;20453;-63
2021/03/16 12:37:49;;;;;;;8.67;2.23;;;12.70;99.90;;;;;;5107677;28;20497;-63
2021/03/16 12:40:16;;;;;;;6.60;1.43;;;12.10;99.90;;;;;;5109530;27;21096;-64
2021/03/16 12:42:42;;;;;;;5.47;1.37;;;11.30;99.90;;;;;;5108285;28;20456;-63
2021/03/16 12:45:09;;;;;;;7.57;1.27;;;10.70;99.90;;;;;;5107994;28;20898;-65
2021/03/16 12:47:36;;;;;;;8.07;1.33;;;10.00;99.90;;;;;;5110459;27;20450;-65
2021/03/16 12:50:04;;;;;;;7.10;1.83;;;9.20;99.90;;;;;;5103053;28;20524;-62